Time;durP1;ratioP1;P1;durP2;ratioP2;P2;SDS_P1;SDS_P2;PMS_P1;PMS_P2;Temp;Humidity;BMP_temperature;BMP_pressure;BME280_temperature;BME280_humidity;BME280_pressure;Samples;Min_cycle;Max_cycle;Signal;HPM_P1;HPM_P2
2022/04/11 00:02:16;;;;;;;13.38;8.15;;;6.80;99.90;;;;;;5076849;28;20024;-75
2022/04/11 00:04:42;;;;;;;17.42;8.70;;;6.80;99.90;;;;;;5077031;28;20021;-76
2022/04/11 00:07:08;;;;;;;18.25;8.77;;;6.80;99.90;;;;;;5077666;28;20099;-75
2022/04/11 00:09:33;;;;;;;16.27;8.35;;;6.80;99.90;;;;;;5058431;28;20025;-76
2022/04/11 00:11:59;;;;;;;17.15;9.02;;;6.80;99.90;;;;;;5076651;28;20033;-76
2022/04/11 00:14:24;;;;;;;18.80;8.55;;;6.80;99.90;;;;;;5076201;28;20024;-76
2022/04/11 00:16:50;;;;;;;16.85;8.35;;;6.80;99.90;;;;;;5076622;28;20059;-76
2022/04/11 00:19:16;;;;;;;21.20;8.55;;;6.80;99.90;;;;;;5076739;28;20025;-76
2022/04/11 00:21:41;;;;;;;15.45;8.20;;;6.80;99.90;;;;;;5076802;28;20036;-76
2022/04/11 00:24:07;;;;;;;18.73;8.55;;;6.80;99.90;;;;;;5078158;28;20035;-76
2022/04/11 00:26:33;;;;;;;16.42;8.20;;;6.80;99.90;;;;;;5078849;28;20060;-76
2022/04/11 00:28:58;;;;;;;16.77;8.63;;;6.80;99.90;;;;;;5075874;28;20029;-76
2022/04/11 00:31:24;;;;;;;18.67;9.23;;;6.80;99.90;;;;;;5077058;28;20024;-76
2022/04/11 00:33:49;;;;;;;19.58;8.43;;;6.80;99.90;;;;;;5076340;28;20424;-76
2022/04/11 00:36:15;;;;;;;15.60;8.45;;;6.70;99.90;;;;;;5076632;28;20385;-76
2022/04/11 00:38:41;;;;;;;19.77;8.80;;;6.80;99.90;;;;;;5075842;28;20532;-76
2022/04/11 00:41:07;;;;;;;16.00;8.27;;;6.70;99.90;;;;;;5077034;28;20043;-76
2022/04/11 00:43:41;;;;;;;12.80;7.80;;;6.80;99.90;;;;;;5076711;28;20028;-76
2022/04/11 00:46:08;;;;;;;17.65;8.32;;;6.80;99.90;;;;;;5076530;28;20031;-76
2022/04/11 00:48:35;;;;;;;16.55;8.35;;;6.70;99.90;;;;;;5058700;28;20493;-76
2022/04/11 00:51:08;;;;;;;15.63;8.98;;;6.70;99.90;;;;;;5076172;28;20024;-76
2022/04/11 00:53:41;;;;;;;16.60;8.60;;;6.70;99.90;;;;;;5076324;28;20500;-76
2022/04/11 00:56:11;;;;;;;16.17;8.02;;;6.70;99.90;;;;;;5057825;28;20029;-77
2022/04/11 00:58:38;;;;;;;13.73;7.63;;;6.70;99.90;;;;;;5075538;28;20388;-76
2022/04/11 01:01:05;;;;;;;16.23;8.27;;;6.70;99.90;;;;;;5074605;28;20029;-76
2022/04/11 01:03:32;;;;;;;20.25;8.20;;;6.70;99.90;;;;;;5075620;28;20135;-76
2022/04/11 01:05:57;;;;;;;14.73;8.23;;;6.70;99.90;;;;;;5063899;28;20033;-76
2022/04/11 01:08:23;;;;;;;19.08;8.40;;;6.60;99.90;;;;;;5075135;28;20031;-76
2022/04/11 01:10:49;;;;;;;12.90;7.80;;;6.70;99.90;;;;;;5075901;28;20023;-75
2022/04/11 01:13:15;;;;;;;15.73;7.45;;;6.60;99.90;;;;;;5076317;28;20115;-76
2022/04/11 01:15:51;;;;;;;14.98;7.97;;;6.60;99.90;;;;;;5074805;28;20020;-75
2022/04/11 01:18:17;;;;;;;15.30;8.07;;;6.60;99.90;;;;;;5061718;28;20499;-76
2022/04/11 01:20:42;;;;;;;14.85;7.63;;;6.60;99.90;;;;;;5075555;28;20032;-76
2022/04/11 01:23:08;;;;;;;15.02;8.00;;;6.60;99.90;;;;;;5074892;28;20032;-76
2022/04/11 01:25:33;;;;;;;16.48;7.75;;;6.70;99.90;;;;;;5075431;28;20029;-75
2022/04/11 01:28:00;;;;;;;14.82;7.35;;;6.70;99.90;;;;;;5075076;28;20218;-76
2022/04/11 01:30:26;;;;;;;16.55;7.90;;;6.60;99.90;;;;;;5074717;28;20021;-76
2022/04/11 01:32:51;;;;;;;14.90;8.32;;;6.60;99.90;;;;;;5074420;28;20035;-76
2022/04/11 01:35:24;;;;;;;13.77;7.63;;;6.60;99.90;;;;;;5075245;28;20055;-75
2022/04/11 01:37:50;;;;;;;15.85;8.27;;;6.60;99.90;;;;;;5075138;28;20532;-76
2022/04/11 01:40:16;;;;;;;15.45;7.40;;;6.60;99.90;;;;;;5075333;28;20547;-76
2022/04/11 01:42:43;;;;;;;13.02;7.68;;;6.60;99.90;;;;;;5074584;28;20052;-76
2022/04/11 01:45:10;;;;;;;15.05;7.30;;;6.60;99.90;;;;;;5074828;28;20032;-76
2022/04/11 01:47:37;;;;;;;16.20;6.78;;;6.50;99.90;;;;;;5074730;28;20035;-76
2022/04/11 01:50:03;;;;;;;19.10;7.63;;;6.50;99.90;;;;;;5075237;28;20025;-76
2022/04/11 01:52:29;;;;;;;15.10;8.13;;;6.50;99.90;;;;;;5074722;28;20531;-76
2022/04/11 01:54:55;;;;;;;13.68;7.40;;;6.50;99.90;;;;;;5078583;28;20025;-76
2022/04/11 01:57:20;;;;;;;13.98;7.68;;;6.40;99.90;;;;;;5078391;28;20031;-76
2022/04/11 01:59:46;;;;;;;14.77;7.32;;;6.40;99.90;;;;;;5078700;28;20020;-76
2022/04/11 02:02:11;;;;;;;15.52;7.43;;;6.40;99.90;;;;;;5077992;28;20420;-76
2022/04/11 02:04:37;;;;;;;20.25;8.07;;;6.40;99.90;;;;;;5078934;28;20119;-76
2022/04/11 02:07:02;;;;;;;15.73;8.00;;;6.40;99.90;;;;;;5082386;28;20150;-76
2022/04/11 02:09:28;;;;;;;12.73;7.75;;;6.30;99.90;;;;;;5087679;28;20028;-76
2022/04/11 02:11:53;;;;;;;16.30;7.90;;;6.30;99.90;;;;;;5068774;28;20036;-76
2022/04/11 02:14:19;;;;;;;12.13;8.02;;;6.30;99.90;;;;;;5081416;28;20051;-76
2022/04/11 02:16:45;;;;;;;15.98;7.88;;;6.30;99.90;;;;;;5078400;28;20029;-77
2022/04/11 02:19:10;;;;;;;13.52;8.45;;;6.20;99.90;;;;;;5090049;28;20125;-76
2022/04/11 02:21:36;;;;;;;14.35;8.27;;;6.20;99.90;;;;;;5087594;28;20056;-76
2022/04/11 02:24:01;;;;;;;12.02;7.55;;;6.20;99.90;;;;;;5087763;28;20092;-76
2022/04/11 02:26:27;;;;;;;16.52;8.35;;;6.20;99.90;;;;;;5078867;28;20503;-76
2022/04/11 02:28:52;;;;;;;16.02;8.65;;;6.20;99.90;;;;;;5086265;28;20033;-76
2022/04/11 02:31:18;;;;;;;13.50;8.52;;;6.10;99.90;;;;;;5085517;28;20036;-76
2022/04/11 02:33:43;;;;;;;14.60;8.38;;;6.10;99.90;;;;;;5085545;28;20036;-76
2022/04/11 02:36:09;;;;;;;16.75;8.27;;;6.10;99.90;;;;;;5086314;28;20024;-76
2022/04/11 02:38:34;;;;;;;13.73;8.55;;;6.10;99.90;;;;;;5084852;28;20539;-76
2022/04/11 02:41:00;;;;;;;16.67;8.30;;;6.10;99.90;;;;;;5080784;28;20492;-76
2022/04/11 02:43:25;;;;;;;15.48;9.40;;;6.10;99.90;;;;;;5080326;28;20025;-76
2022/04/11 02:45:51;;;;;;;14.52;8.52;;;6.10;99.90;;;;;;5079294;28;20028;-76
2022/04/11 02:48:16;;;;;;;13.93;8.40;;;6.00;99.90;;;;;;5060689;28;20458;-75
2022/04/11 02:50:42;;;;;;;15.95;8.85;;;6.00;99.90;;;;;;5079077;28;20035;-76
2022/04/11 02:53:07;;;;;;;17.58;9.05;;;6.00;99.90;;;;;;5078422;28;20042;-76
2022/04/11 02:55:33;;;;;;;17.70;8.48;;;6.00;99.90;;;;;;5077318;28;20055;-76
2022/04/11 02:57:58;;;;;;;16.00;8.57;;;6.00;99.90;;;;;;5077898;28;20032;-76
2022/04/11 03:00:24;;;;;;;18.58;9.13;;;5.90;99.90;;;;;;5068029;28;20032;-76
2022/04/11 03:02:50;;;;;;;17.55;9.68;;;5.90;99.90;;;;;;5069338;28;20540;-76
2022/04/11 03:05:15;;;;;;;13.25;8.68;;;5.90;99.90;;;;;;5058678;28;20025;-76
2022/04/11 03:07:41;;;;;;;16.63;9.23;;;5.80;99.90;;;;;;5076978;28;20032;-76
2022/04/11 03:10:08;;;;;;;16.58;9.13;;;5.80;99.90;;;;;;5076867;28;20381;-76
2022/04/11 03:12:36;;;;;;;14.80;8.98;;;5.80;99.90;;;;;;5077655;28;20436;-76
2022/04/11 03:15:03;;;;;;;14.77;9.00;;;5.70;99.90;;;;;;5078182;28;20391;-76
2022/04/11 03:17:28;;;;;;;15.85;9.05;;;5.70;99.90;;;;;;5078461;28;20079;-76
2022/04/11 03:19:54;;;;;;;16.05;9.05;;;5.70;99.90;;;;;;5078036;28;20089;-76
2022/04/11 03:22:19;;;;;;;18.55;9.75;;;5.70;99.90;;;;;;5077913;28;20033;-76
2022/04/11 03:24:45;;;;;;;17.90;10.10;;;5.70;99.90;;;;;;5078793;28;20032;-76
2022/04/11 03:27:10;;;;;;;17.77;9.07;;;5.70;99.90;;;;;;5078011;28;20032;-76
2022/04/11 03:29:36;;;;;;;14.95;9.52;;;5.70;99.90;;;;;;5078176;28;20025;-76
2022/04/11 03:32:02;;;;;;;20.38;10.25;;;5.60;99.90;;;;;;5077718;28;20041;-76
2022/04/11 03:34:28;;;;;;;18.02;9.75;;;5.60;99.90;;;;;;5078744;28;20025;-77
2022/04/11 03:36:53;;;;;;;16.73;9.48;;;5.60;99.90;;;;;;5078667;28;20434;-76
2022/04/11 03:39:19;;;;;;;17.85;9.70;;;5.50;99.90;;;;;;5077186;28;20016;-76
2022/04/11 03:41:44;;;;;;;20.02;10.07;;;5.50;99.90;;;;;;5075438;28;20020;-76
2022/04/11 03:44:10;;;;;;;14.25;9.50;;;5.50;99.90;;;;;;5075496;28;20074;-76
2022/04/11 03:46:39;;;;;;;15.15;9.98;;;5.40;99.90;;;;;;5071565;28;20021;-76
2022/04/11 03:49:06;;;;;;;19.48;9.93;;;5.40;99.90;;;;;;5070078;28;20035;-76
2022/04/11 03:51:32;;;;;;;20.27;10.23;;;5.40;99.90;;;;;;5058856;28;20044;-76
2022/04/11 03:53:58;;;;;;;18.33;10.40;;;5.40;99.90;;;;;;5075959;28;20369;-76
2022/04/11 03:56:24;;;;;;;20.60;10.70;;;5.40;99.90;;;;;;5077081;28;20042;-76
2022/04/11 03:58:49;;;;;;;18.77;10.30;;;5.30;99.90;;;;;;5075007;28;20046;-75
2022/04/11 04:01:15;;;;;;;16.70;10.40;;;5.30;99.90;;;;;;5075798;28;20041;-75
2022/04/11 04:03:40;;;;;;;18.05;10.60;;;5.30;99.90;;;;;;5076403;28;20369;-76
2022/04/11 04:06:06;;;;;;;20.15;10.70;;;5.30;99.90;;;;;;5075920;28;20373;-76
2022/04/11 04:08:32;;;;;;;21.15;11.30;;;5.30;99.90;;;;;;5071446;28;20043;-76
2022/04/11 04:10:58;;;;;;;17.48;10.77;;;5.20;99.90;;;;;;5070081;28;20732;-76
2022/04/11 04:13:23;;;;;;;27.38;11.30;;;5.20;99.90;;;;;;5076575;28;20052;-77
2022/04/11 04:15:49;;;;;;;21.90;11.50;;;5.20;99.90;;;;;;5081750;28;20035;-76
2022/04/11 04:18:14;;;;;;;23.92;12.55;;;5.20;99.90;;;;;;5081221;28;20064;-76
2022/04/11 04:20:40;;;;;;;22.60;11.65;;;5.20;99.90;;;;;;5082100;28;20027;-76
2022/04/11 04:23:06;;;;;;;20.23;12.10;;;5.20;99.90;;;;;;5075511;28;20088;-77
2022/04/11 04:25:36;;;;;;;22.50;12.27;;;5.20;99.90;;;;;;5074617;28;20031;-77
2022/04/11 04:28:02;;;;;;;18.00;11.50;;;5.20;99.90;;;;;;5066493;28;20028;-77
2022/04/11 04:30:31;;;;;;;19.92;11.77;;;5.20;99.90;;;;;;5047810;28;20104;-77
2022/04/11 04:32:59;;;;;;;20.00;11.50;;;5.20;99.90;;;;;;5067492;28;20028;-77
2022/04/11 04:35:26;;;;;;;19.38;12.05;;;5.20;99.90;;;;;;5066317;28;20048;-77
2022/04/11 04:37:52;;;;;;;19.33;11.90;;;5.20;99.90;;;;;;5053410;28;20454;-77
2022/04/11 04:40:18;;;;;;;22.30;12.10;;;5.20;99.90;;;;;;5069035;28;20036;-77
2022/04/11 04:42:44;;;;;;;22.90;11.80;;;5.10;99.90;;;;;;5074280;28;20017;-76
2022/04/11 04:45:10;;;;;;;23.55;12.60;;;5.10;99.90;;;;;;5074457;28;20029;-77
2022/04/11 04:47:35;;;;;;;19.98;12.05;;;5.10;99.90;;;;;;5073931;28;20113;-77
2022/04/11 04:50:01;;;;;;;22.60;12.68;;;5.10;99.90;;;;;;5086219;28;20039;-77
2022/04/11 04:52:27;;;;;;;23.15;11.73;;;5.10;99.90;;;;;;5076306;28;20388;-77
2022/04/11 04:54:52;;;;;;;24.67;12.30;;;5.00;99.90;;;;;;5081740;28;20031;-77
2022/04/11 04:57:18;;;;;;;20.17;11.75;;;5.00;99.90;;;;;;5089280;28;20029;-78
2022/04/11 04:59:43;;;;;;;17.67;11.60;;;5.00;99.90;;;;;;5087838;28;20020;-77
2022/04/11 05:02:09;;;;;;;21.77;12.48;;;5.00;99.90;;;;;;5081170;28;20047;-77
2022/04/11 05:04:34;;;;;;;20.17;11.60;;;5.00;99.90;;;;;;5070431;28;20017;-77
2022/04/11 05:07:00;;;;;;;21.83;11.95;;;4.90;99.90;;;;;;5058773;28;20460;-76
2022/04/11 05:09:26;;;;;;;20.05;13.18;;;4.90;99.90;;;;;;5072903;28;20439;-76
2022/04/11 05:11:51;;;;;;;26.13;13.27;;;4.90;99.90;;;;;;5060045;28;20064;-77
2022/04/11 05:14:17;;;;;;;19.10;12.80;;;4.90;99.90;;;;;;5068559;28;20082;-76
2022/04/11 05:16:43;;;;;;;20.00;12.55;;;4.90;99.90;;;;;;5059594;28;20017;-79
2022/04/11 05:19:09;;;;;;;20.23;12.32;;;4.90;99.90;;;;;;5058098;28;20476;-78
2022/04/11 05:21:34;;;;;;;17.38;12.30;;;4.90;99.90;;;;;;5049228;28;20023;-77
2022/04/11 05:24:00;;;;;;;20.60;12.82;;;4.90;99.90;;;;;;5054379;28;20099;-78
2022/04/11 05:26:26;;;;;;;26.10;13.85;;;4.90;99.90;;;;;;5056367;28;20492;-76
2022/04/11 05:28:51;;;;;;;23.98;13.15;;;4.90;99.90;;;;;;5051434;28;20021;-79
2022/04/11 05:31:17;;;;;;;21.42;12.25;;;4.90;99.90;;;;;;5061948;28;20032;-75
2022/04/11 05:33:43;;;;;;;23.58;14.40;;;4.90;99.90;;;;;;5071082;28;20119;-76
2022/04/11 05:36:09;;;;;;;23.83;14.20;;;4.90;99.90;;;;;;5061573;28;20053;-76
2022/04/11 05:38:35;;;;;;;27.85;16.25;;;4.90;99.90;;;;;;5052439;28;20318;-76
2022/04/11 05:41:00;;;;;;;23.50;14.68;;;4.90;99.90;;;;;;5063543;28;20098;-76
2022/04/11 05:43:26;;;;;;;25.45;14.75;;;4.90;99.90;;;;;;5063317;28;20043;-78
2022/04/11 05:45:51;;;;;;;22.92;13.80;;;5.00;99.90;;;;;;5063700;28;20028;-78
2022/04/11 05:48:17;;;;;;;22.00;13.65;;;5.00;99.90;;;;;;5072156;28;20070;-77
2022/04/11 05:50:42;;;;;;;19.60;13.52;;;5.00;99.90;;;;;;5069831;28;20025;-78
2022/04/11 05:53:08;;;;;;;22.13;13.60;;;5.10;99.90;;;;;;5067606;28;20552;-77
2022/04/11 05:55:34;;;;;;;18.55;13.75;;;5.10;99.90;;;;;;5062771;28;20427;-77
2022/04/11 05:58:00;;;;;;;20.90;14.20;;;5.10;99.90;;;;;;5055334;28;20078;-78
2022/04/11 06:00:25;;;;;;;21.08;12.95;;;5.20;99.90;;;;;;5072281;28;20021;-78
2022/04/11 06:02:51;;;;;;;27.70;14.80;;;5.20;99.90;;;;;;5071948;28;20044;-78
2022/04/11 06:05:17;;;;;;;24.80;14.68;;;5.30;99.90;;;;;;5072011;28;20392;-78
2022/04/11 06:07:43;;;;;;;22.60;14.10;;;5.40;99.90;;;;;;5056752;28;20463;-78
2022/04/11 06:10:09;;;;;;;24.95;15.73;;;5.40;99.90;;;;;;5063697;28;20064;-79
2022/04/11 06:12:36;;;;;;;20.70;14.13;;;5.50;99.90;;;;;;5053490;28;20029;-77
2022/04/11 06:15:02;;;;;;;22.17;14.85;;;5.50;99.90;;;;;;5071095;28;20110;-77
2022/04/11 06:17:27;;;;;;;27.02;15.50;;;5.60;99.90;;;;;;5071239;28;20072;-77
2022/04/11 06:19:54;;;;;;;23.77;14.15;;;5.70;99.90;;;;;;5067308;28;20060;-77
2022/04/11 06:22:21;;;;;;;24.83;14.75;;;5.70;99.90;;;;;;5063642;28;20429;-77
2022/04/11 06:24:47;;;;;;;22.25;14.65;;;5.80;99.90;;;;;;5062439;28;20492;-77
2022/04/11 06:27:13;;;;;;;21.33;14.48;;;5.80;99.90;;;;;;5064047;28;20100;-77
2022/04/11 06:29:38;;;;;;;23.08;14.65;;;5.90;99.90;;;;;;5051650;28;20033;-77
2022/04/11 06:32:05;;;;;;;22.55;14.10;;;5.90;99.90;;;;;;5051562;28;20372;-77
2022/04/11 06:34:31;;;;;;;23.05;14.27;;;6.00;99.90;;;;;;5051620;28;20104;-78
2022/04/11 06:36:57;;;;;;;21.55;15.13;;;6.10;99.90;;;;;;5052323;28;20034;-77
2022/04/11 06:39:22;;;;;;;24.25;14.25;;;6.10;99.90;;;;;;5051237;28;20024;-76
2022/04/11 06:41:48;;;;;;;20.80;14.05;;;6.20;99.90;;;;;;5055595;28;20074;-77
2022/04/11 06:44:13;;;;;;;22.15;14.13;;;6.20;99.90;;;;;;5056501;28;20029;-77
2022/04/11 06:46:39;;;;;;;21.98;14.27;;;6.30;99.90;;;;;;5054301;28;20032;-76
2022/04/11 06:49:05;;;;;;;21.05;14.27;;;6.30;99.90;;;;;;5059446;28;20112;-77
2022/04/11 06:51:30;;;;;;;22.67;14.25;;;6.40;99.90;;;;;;5060817;28;20092;-76
2022/04/11 06:53:56;;;;;;;20.38;13.70;;;6.40;99.90;;;;;;5056118;28;20039;-77
2022/04/11 06:56:22;;;;;;;19.90;13.63;;;6.50;99.90;;;;;;5055028;28;20092;-77
2022/04/11 06:58:47;;;;;;;25.27;13.93;;;6.60;99.90;;;;;;5054339;28;20029;-77
2022/04/11 07:01:13;;;;;;;21.52;13.30;;;6.60;99.90;;;;;;5054045;28;20033;-77
2022/04/11 07:03:38;;;;;;;21.83;13.30;;;6.70;99.90;;;;;;5061498;28;20028;-77
2022/04/11 07:06:04;;;;;;;22.52;13.13;;;6.80;99.90;;;;;;5062991;28;20078;-78
2022/04/11 07:08:29;;;;;;;23.45;12.93;;;6.90;99.90;;;;;;5044473;28;20033;-78
2022/04/11 07:10:57;;;;;;;19.98;12.82;;;6.90;99.90;;;;;;5045706;28;20112;-77
2022/04/11 07:13:23;;;;;;;18.75;12.95;;;7.00;99.90;;;;;;5062752;28;20024;-77
2022/04/11 07:15:48;;;;;;;17.63;11.77;;;7.10;99.90;;;;;;5062870;28;20013;-78
2022/04/11 07:18:14;;;;;;;20.83;12.43;;;7.20;99.90;;;;;;5069864;28;20049;-77
2022/04/11 07:20:40;;;;;;;22.50;12.55;;;7.40;99.90;;;;;;5067623;28;20025;-78
2022/04/11 07:23:05;;;;;;;18.70;11.32;;;7.50;99.90;;;;;;5063224;28;20020;-78
2022/04/11 07:25:31;;;;;;;17.83;11.90;;;7.60;99.90;;;;;;5070100;28;20048;-78
2022/04/11 07:27:57;;;;;;;20.58;11.63;;;7.70;99.90;;;;;;5061029;28;20026;-77
2022/04/11 07:30:22;;;;;;;16.95;10.77;;;7.80;99.90;;;;;;5067611;28;20021;-77
2022/04/11 07:32:48;;;;;;;17.40;12.13;;;7.90;99.90;;;;;;5066959;28;20036;-77
2022/04/11 07:35:14;;;;;;;19.50;11.32;;;8.10;99.90;;;;;;5064573;28;20032;-78
2022/04/11 07:37:39;;;;;;;14.13;10.73;;;8.20;99.90;;;;;;5061591;28;20392;-77
2022/04/11 07:40:06;;;;;;;19.90;10.40;;;8.30;99.90;;;;;;5065688;28;20376;-78
2022/04/11 07:42:32;;;;;;;16.63;10.40;;;8.50;99.90;;;;;;5060525;28;20024;-78
2022/04/11 07:44:58;;;;;;;14.48;10.18;;;8.60;99.90;;;;;;5058115;28;20385;-78
2022/04/11 07:47:23;;;;;;;17.35;10.02;;;8.80;99.90;;;;;;5064884;28;20032;-78
2022/04/11 07:49:49;;;;;;;18.95;10.27;;;8.90;99.90;;;;;;5063229;28;20013;-77
2022/04/11 07:52:14;;;;;;;17.95;9.93;;;9.00;99.90;;;;;;5067520;28;20542;-78
2022/04/11 07:54:40;;;;;;;14.27;9.45;;;9.10;99.90;;;;;;5067710;28;20051;-78
2022/04/11 07:57:07;;;;;;;13.55;9.13;;;9.30;99.90;;;;;;5072096;28;20173;-78
2022/04/11 07:59:33;;;;;;;19.02;9.45;;;9.40;99.90;;;;;;5071976;28;20024;-77
2022/04/11 08:01:58;;;;;;;17.48;8.90;;;9.50;99.90;;;;;;5067138;28;20107;-78
2022/04/11 08:04:24;;;;;;;13.32;9.18;;;9.70;99.90;;;;;;5061620;28;20028;-78
2022/04/11 08:06:49;;;;;;;16.55;8.57;;;9.90;99.90;;;;;;5066240;28;20028;-78
2022/04/11 08:09:15;;;;;;;15.27;9.50;;;10.00;99.90;;;;;;5069050;28;20017;-74
2022/04/11 08:11:40;;;;;;;12.70;8.70;;;10.20;99.90;;;;;;5062216;28;20033;-77
2022/04/11 08:14:06;;;;;;;16.92;9.90;;;10.40;99.90;;;;;;5053164;28;20043;-77
2022/04/11 08:16:32;;;;;;;12.73;9.27;;;10.50;99.90;;;;;;5053141;28;20025;-77
2022/04/11 08:18:57;;;;;;;15.32;8.90;;;10.70;99.90;;;;;;5053317;28;20045;-77
2022/04/11 08:21:23;;;;;;;16.50;9.63;;;10.80;99.90;;;;;;5053494;28;20029;-77
2022/04/11 08:23:48;;;;;;;13.23;9.02;;;11.00;99.90;;;;;;5072807;28;20102;-77
2022/04/11 08:26:14;;;;;;;13.95;9.18;;;11.10;99.90;;;;;;5073041;28;20169;-77
2022/04/11 08:28:39;;;;;;;16.50;8.60;;;11.30;99.90;;;;;;5073158;28;20024;-77
2022/04/11 08:31:05;;;;;;;13.85;8.45;;;11.40;99.90;;;;;;5074095;28;20023;-76
2022/04/11 08:33:31;;;;;;;13.95;8.93;;;11.60;99.90;;;;;;5072883;28;20032;-77
2022/04/11 08:35:56;;;;;;;15.50;8.70;;;11.70;99.90;;;;;;5072609;28;20036;-77
2022/04/11 08:38:22;;;;;;;13.32;8.25;;;11.80;99.90;;;;;;5072246;28;20012;-77
2022/04/11 08:40:49;;;;;;;14.13;7.55;;;12.00;99.90;;;;;;5072834;28;20089;-76
2022/04/11 08:43:20;;;;;;;10.02;6.47;;;12.20;99.90;;;;;;5073050;28;20024;-77
2022/04/11 08:45:46;;;;;;;16.45;7.07;;;12.30;99.90;;;;;;5072884;28;20365;-77
2022/04/11 08:48:12;;;;;;;12.73;6.80;;;12.50;99.80;;;;;;5072460;28;20108;-77
2022/04/11 08:50:39;;;;;;;11.63;6.93;;;12.60;99.10;;;;;;5072729;28;20083;-76
2022/04/11 08:53:05;;;;;;;11.48;5.97;;;12.80;98.00;;;;;;5072256;28;20056;-77
2022/04/11 08:55:30;;;;;;;8.88;5.40;;;13.00;96.50;;;;;;5072295;28;20075;-77
2022/04/11 08:57:58;;;;;;;10.40;5.70;;;13.10;94.10;;;;;;5051871;28;20040;-76
2022/04/11 09:00:23;;;;;;;8.77;5.35;;;13.10;92.80;;;;;;5052091;28;20035;-77
2022/04/11 09:02:49;;;;;;;9.00;5.47;;;13.20;93.30;;;;;;5057787;28;20013;-77
2022/04/11 09:05:22;;;;;;;8.50;5.20;;;13.40;92.00;;;;;;5064979;28;20095;-77
2022/04/11 09:07:51;;;;;;;11.15;4.90;;;13.50;90.80;;;;;;5055947;28;20125;-77
2022/04/11 09:10:19;;;;;;;9.25;4.70;;;13.70;89.90;;;;;;5041898;28;20692;-77
2022/04/11 09:12:50;;;;;;;7.65;4.43;;;13.80;88.70;;;;;;5054962;28;20056;-77
2022/04/11 09:15:16;;;;;;;11.15;5.32;;;13.90;84.80;;;;;;5068760;28;20017;-78
2022/04/11 09:17:43;;;;;;;8.68;4.47;;;14.00;82.70;;;;;;5060397;28;20056;-77
2022/04/11 09:20:11;;;;;;;13.50;4.35;;;14.10;82.20;;;;;;5068319;28;20492;-78
2022/04/11 09:22:36;;;;;;;8.18;4.55;;;14.20;80.00;;;;;;5072898;28;20028;-77
2022/04/11 09:25:13;;;;;;;7.38;3.92;;;14.30;76.90;;;;;;5072199;28;20391;-77
2022/04/11 09:27:39;;;;;;;8.48;4.13;;;14.40;73.90;;;;;;5059351;28;20110;-77
2022/04/11 09:30:38;;;;;;;11.18;5.00;;;14.40;73.90;;;;;;5065617;28;20429;-77
2022/04/11 09:33:06;;;;;;;9.18;5.28;;;14.50;74.70;;;;;;5049518;28;20392;-77
2022/04/11 09:35:48;;;;;;;8.77;5.07;;;14.60;76.30;;;;;;5069286;28;20436;-77
2022/04/11 09:38:14;;;;;;;10.82;4.90;;;14.70;74.30;;;;;;5068445;28;20025;-78
2022/04/11 09:40:51;;;;;;;8.23;4.57;;;14.70;72.90;;;;;;5064685;28;20096;-77
2022/04/11 09:43:25;;;;;;;10.27;5.03;;;14.70;73.70;;;;;;5064461;28;20094;-77
2022/04/11 09:45:53;;;;;;;7.55;4.43;;;14.80;73.40;;;;;;5073300;28;20085;-77
2022/04/11 09:48:21;;;;;;;8.73;3.67;;;14.80;72.80;;;;;;5072970;28;20044;-77
2022/04/11 09:50:48;;;;;;;12.50;4.35;;;14.80;70.10;;;;;;5074409;28;20440;-77
2022/04/11 09:53:14;;;;;;;9.25;4.22;;;14.80;69.00;;;;;;5074453;28;20028;-77
2022/04/11 09:55:42;;;;;;;7.00;3.95;;;14.80;68.10;;;;;;5075154;28;20027;-77
2022/04/11 09:58:09;;;;;;;10.73;4.00;;;14.80;67.30;;;;;;5064300;28;20033;-77
2022/04/11 10:00:39;;;;;;;7.18;3.83;;;14.90;66.90;;;;;;5057724;28;20037;-77
2022/04/11 10:03:05;;;;;;;8.98;4.57;;;15.00;66.60;;;;;;5076200;28;20067;-77
2022/04/11 10:05:39;;;;;;;7.50;4.50;;;15.00;67.00;;;;;;5069281;28;20031;-77
2022/04/11 10:08:10;;;;;;;9.35;4.25;;;15.10;66.20;;;;;;5066064;28;20028;-77
2022/04/11 10:10:40;;;;;;;9.50;4.28;;;15.20;64.40;;;;;;5074519;28;20028;-77
2022/04/11 10:13:07;;;;;;;9.93;4.25;;;15.20;63.10;;;;;;5073884;28;20025;-77
2022/04/11 10:15:35;;;;;;;9.02;4.43;;;15.10;62.50;;;;;;5075791;28;20035;-77
2022/04/11 10:18:01;;;;;;;8.65;4.13;;;15.10;63.30;;;;;;5077155;28;20049;-77
2022/04/11 10:20:29;;;;;;;9.27;5.22;;;15.10;62.30;;;;;;5076579;28;20215;-77
2022/04/11 10:23:07;;;;;;;7.95;4.93;;;15.00;61.70;;;;;;5076057;28;20074;-77
2022/04/11 10:25:38;;;;;;;12.00;5.32;;;15.00;62.00;;;;;;5075188;28;20035;-77
2022/04/11 10:28:13;;;;;;;8.35;4.88;;;15.00;62.30;;;;;;5075972;28;20054;-79
2022/04/11 10:30:39;;;;;;;9.95;5.30;;;15.00;62.60;;;;;;5075802;28;20369;-77
2022/04/11 10:33:05;;;;;;;6.45;4.93;;;15.20;62.60;;;;;;5074992;28;20027;-77
2022/04/11 10:35:40;;;;;;;8.77;4.85;;;15.30;62.80;;;;;;5074875;28;20126;-77
2022/04/11 10:38:07;;;;;;;11.48;5.38;;;15.40;62.30;;;;;;5057605;28;20044;-77
2022/04/11 10:40:34;;;;;;;7.28;5.25;;;15.30;61.10;;;;;;5075301;28;20017;-77
2022/04/11 10:43:08;;;;;;;8.48;5.32;;;15.30;60.20;;;;;;5059686;28;20056;-77
2022/04/11 10:45:36;;;;;;;10.55;5.75;;;15.30;59.60;;;;;;5075610;28;20039;-77
2022/04/11 10:48:06;;;;;;;12.10;5.63;;;15.30;59.60;;;;;;5075415;28;20483;-77
2022/04/11 10:50:43;;;;;;;9.65;5.47;;;15.40;59.80;;;;;;5074969;28;20036;-77
2022/04/11 10:53:12;;;;;;;11.48;5.82;;;15.40;59.30;;;;;;5075724;28;20024;-77
2022/04/11 10:56:02;;;;;;;13.13;6.43;;;15.50;60.00;;;;;;5076188;28;20454;-77
2022/04/11 10:58:49;;;;;;;8.52;5.25;;;15.60;59.90;;;;;;5075580;28;20029;-77
2022/04/11 11:01:35;;;;;;;10.18;5.75;;;15.70;58.60;;;;;;5076597;28;20111;-77
2022/04/11 11:04:18;;;;;;;9.77;6.10;;;15.70;58.10;;;;;;5075958;28;20157;-77
2022/04/11 11:06:44;;;;;;;6.35;5.10;;;15.70;57.60;;;;;;5077200;28;20536;-77
2022/04/11 11:09:19;;;;;;;10.27;5.55;;;15.70;57.50;;;;;;5076672;28;20048;-77
2022/04/11 11:11:46;;;;;;;10.88;5.03;;;15.80;57.80;;;;;;5077360;28;20083;-77
2022/04/11 11:14:41;;;;;;;10.68;5.80;;;15.80;57.50;;;;;;5077262;28;20716;-77
2022/04/11 11:17:07;;;;;;;8.43;5.35;;;15.90;56.70;;;;;;5078670;28;20479;-77
2022/04/11 11:20:06;;;;;;;10.43;5.30;;;15.80;56.10;;;;;;5075377;28;20060;-75
2022/04/11 11:22:33;;;;;;;10.77;5.45;;;15.80;56.40;;;;;;5072861;28;20100;-75
2022/04/11 11:25:17;;;;;;;8.85;5.43;;;15.80;56.40;;;;;;5072674;28;20074;-75
2022/04/11 11:27:44;;;;;;;8.73;5.32;;;15.90;56.20;;;;;;5072953;28;20089;-75
2022/04/11 11:30:11;;;;;;;9.52;6.18;;;15.90;56.10;;;;;;5073617;28;20031;-76
2022/04/11 11:32:40;;;;;;;12.95;5.97;;;15.80;56.50;;;;;;5073376;28;20502;-76
2022/04/11 11:35:09;;;;;;;9.25;5.47;;;15.80;57.00;;;;;;5055190;28;20124;-76
2022/04/11 11:37:34;;;;;;;8.30;5.68;;;15.80;55.90;;;;;;5075398;28;20078;-75
2022/04/11 11:40:02;;;;;;;8.93;6.32;;;15.70;55.40;;;;;;5075307;28;20024;-75
2022/04/11 11:42:37;;;;;;;8.85;5.97;;;15.60;56.10;;;;;;5075079;28;20028;-75
2022/04/11 11:45:03;;;;;;;9.85;6.45;;;15.60;57.10;;;;;;5089276;28;20047;-75
2022/04/11 11:47:29;;;;;;;9.63;5.97;;;15.50;57.60;;;;;;5085306;28;20033;-75
2022/04/11 11:50:03;;;;;;;11.70;6.13;;;15.60;57.30;;;;;;5085105;28;20086;-76
2022/04/11 11:52:29;;;;;;;7.97;5.78;;;15.60;57.70;;;;;;5084403;28;20100;-76
2022/04/11 11:54:54;;;;;;;12.82;6.82;;;15.60;58.10;;;;;;5084579;28;20016;-76
2022/04/11 11:57:28;;;;;;;10.70;6.10;;;15.70;58.00;;;;;;5084732;28;20024;-76
2022/04/11 12:00:03;;;;;;;12.30;6.75;;;15.80;58.20;;;;;;5083042;28;20025;-76
2022/04/11 12:05:27;;;;;;;12.15;7.00;;;15.90;58.10;;;;;;5082778;28;20282;-76
2022/04/11 12:08:02;;;;;;;14.07;6.30;;;15.90;58.10;;;;;;5085649;28;20443;-77
2022/04/11 12:10:28;;;;;;;12.83;6.20;;;16.00;57.70;;;;;;5084365;28;20100;-76
2022/04/11 12:12:54;;;;;;;9.85;6.05;;;16.10;57.80;;;;;;5065920;28;20259;-77
2022/04/11 12:15:20;;;;;;;10.50;6.10;;;16.20;57.70;;;;;;5085464;28;20028;-77
2022/04/11 12:17:49;;;;;;;10.25;6.13;;;16.20;57.10;;;;;;5083548;28;20040;-77
2022/04/11 12:20:19;;;;;;;10.25;6.10;;;16.20;56.00;;;;;;5066790;28;20055;-77
2022/04/11 12:23:12;;;;;;;9.35;5.78;;;16.20;56.00;;;;;;5071594;28;20225;-77
2022/04/11 12:25:42;;;;;;;10.73;6.03;;;16.20;55.40;;;;;;5063901;28;20044;-77
2022/04/11 12:28:19;;;;;;;8.65;5.82;;;16.20;55.90;;;;;;5047644;28;20044;-76
2022/04/11 12:30:48;;;;;;;10.48;6.43;;;16.20;55.50;;;;;;5069221;28;20020;-76
2022/04/11 12:33:29;;;;;;;13.07;6.45;;;16.30;55.60;;;;;;5071907;28;20017;-77
2022/04/11 12:36:09;;;;;;;9.48;5.72;;;16.30;55.60;;;;;;5068328;28;20028;-77
2022/04/11 12:38:43;;;;;;;9.70;6.13;;;16.30;56.30;;;;;;5058698;28;20078;-76
2022/04/11 12:41:31;;;;;;;8.35;5.75;;;16.40;55.80;;;;;;5058757;28;20032;-77
2022/04/11 12:44:09;;;;;;;9.55;5.78;;;16.50;55.60;;;;;;5057426;28;20025;-76
2022/04/11 12:46:37;;;;;;;11.15;6.25;;;16.60;55.00;;;;;;5058945;28;20025;-77